Time;durP1;ratioP1;P1;durP2;ratioP2;P2;SDS_P1;SDS_P2;PMS_P1;PMS_P2;Temp;Humidity;BMP_temperature;BMP_pressure;BME280_temperature;BME280_humidity;BME280_pressure;Samples;Min_cycle;Max_cycle;Signal;HPM_P1;HPM_P2
2022/01/10 00:02:06;;;;;;;18.48;9.98;;;;;;;;;;2581682;53;21077;-78
2022/01/10 00:04:33;;;;;;;19.58;9.27;;;;;;;;;;2336840;57;21073;-80
2022/01/10 00:07:00;;;;;;;14.80;8.60;;;;;;;;;;2581850;53;21037;-80
2022/01/10 00:09:27;;;;;;;13.57;7.62;;;;;;;;;;2581641;53;21597;-80
2022/01/10 00:11:54;;;;;;;15.05;7.70;;;;;;;;;;2581130;53;21605;-80
2022/01/10 00:14:21;;;;;;;13.52;7.45;;;;;;;;;;2581839;53;21605;-79
2022/01/10 00:16:48;;;;;;;16.40;8.90;;;;;;;;;;2336829;57;21593;-80
2022/01/10 00:19:15;;;;;;;16.17;9.25;;;;;;;;;;2337006;57;21712;-81
2022/01/10 00:21:42;;;;;;;13.88;8.57;;;;;;;;;;2336858;57;21624;-82
2022/01/10 00:24:09;;;;;;;14.15;8.32;;;;;;;;;;2581971;53;21451;-80
2022/01/10 00:26:36;;;;;;;16.02;9.30;;;;;;;;;;2337355;57;21080;-79
2022/01/10 00:29:03;;;;;;;17.85;10.65;;;;;;;;;;2581913;53;21030;-80
2022/01/10 00:31:30;;;;;;;16.77;10.63;;;;;;;;;;2581695;53;21065;-80
2022/01/10 00:33:57;;;;;;;17.42;10.95;;;;;;;;;;2581750;53;21038;-79
2022/01/10 00:36:25;;;;;;;18.70;9.98;;;;;;;;;;2336858;57;21041;-79
2022/01/10 00:38:52;;;;;;;18.85;10.73;;;;;;;;;;2336937;57;21073;-79
2022/01/10 00:41:19;;;;;;;25.00;13.18;;;;;;;;;;2581943;53;21033;-79
2022/01/10 00:43:48;;;;;;;18.23;10.52;;;;;;;;;;2337328;57;21180;-80
2022/01/10 00:46:15;;;;;;;21.87;12.68;;;;;;;;;;2582325;53;21105;-80
2022/01/10 00:48:42;;;;;;;20.30;11.20;;;;;;;;;;2336771;57;21086;-79
2022/01/10 00:51:09;;;;;;;25.70;12.52;;;;;;;;;;2336792;57;21104;-79
2022/01/10 00:53:37;;;;;;;20.17;10.68;;;;;;;;;;2336916;57;21022;-80
2022/01/10 00:56:08;;;;;;;26.27;12.95;;;;;;;;;;2581987;53;21085;-80
2022/01/10 00:58:36;;;;;;;22.58;12.13;;;;;;;;;;2582300;53;21073;-80
2022/01/10 01:01:03;;;;;;;20.83;10.70;;;;;;;;;;2581868;53;21089;-80
2022/01/10 01:03:30;;;;;;;16.23;9.82;;;;;;;;;;2336707;57;21029;-79
2022/01/10 01:05:57;;;;;;;22.08;11.80;;;;;;;;;;2336621;57;21089;-81
2022/01/10 01:08:26;;;;;;;26.08;11.63;;;;;;;;;;2337023;57;21542;-80
2022/01/10 01:13:58;;;;;;;17.10;9.75;;;;;;;;;;2336891;57;21085;-79
2022/01/10 01:16:44;;;;;;;21.20;10.15;;;;;;;;;;2337127;57;21109;-80
2022/01/10 01:19:53;;;;;;;29.05;10.65;;;;;;;;;;2337233;57;21085;-80
2022/01/10 01:25:06;;;;;;;23.95;10.98;;;;;;;;;;2336995;57;20962;-80
2022/01/10 01:27:33;;;;;;;27.08;12.48;;;;;;;;;;2336562;57;21026;-80
2022/01/10 01:30:00;;;;;;;19.90;9.23;;;;;;;;;;2336536;57;21064;-79
2022/01/10 01:32:27;;;;;;;24.45;9.80;;;;;;;;;;2337333;57;21156;-79
2022/01/10 01:34:57;;;;;;;22.92;10.75;;;;;;;;;;2337410;57;21486;-81
2022/01/10 01:37:24;;;;;;;19.90;9.48;;;;;;;;;;2336989;57;21135;-80
2022/01/10 01:39:51;;;;;;;17.90;10.50;;;;;;;;;;2581467;53;21029;-80
2022/01/10 01:42:32;;;;;;;24.80;11.00;;;;;;;;;;2581771;53;21042;-80
2022/01/10 01:44:59;;;;;;;21.40;11.82;;;;;;;;;;2582059;53;21061;-80
2022/01/10 01:47:26;;;;;;;23.67;11.27;;;;;;;;;;2336903;57;21030;-79
2022/01/10 01:49:53;;;;;;;21.60;11.93;;;;;;;;;;2581615;53;21033;-80
2022/01/10 01:52:20;;;;;;;23.25;12.52;;;;;;;;;;2336896;57;21054;-79
2022/01/10 01:54:47;;;;;;;21.27;12.10;;;;;;;;;;2336776;57;21022;-79
2022/01/10 01:57:14;;;;;;;30.00;13.15;;;;;;;;;;2336080;57;21105;-79
2022/01/10 01:59:41;;;;;;;26.48;11.75;;;;;;;;;;2580640;53;21022;-78
2022/01/10 02:02:08;;;;;;;21.90;10.63;;;;;;;;;;2337347;57;21074;-80
2022/01/10 02:04:35;;;;;;;24.42;10.30;;;;;;;;;;2337808;57;21073;-79
2022/01/10 02:07:02;;;;;;;22.02;8.82;;;;;;;;;;2337437;57;21132;-81
2022/01/10 02:09:30;;;;;;;15.07;8.20;;;;;;;;;;2337413;57;21113;-79
2022/01/10 02:11:57;;;;;;;16.10;8.55;;;;;;;;;;2337632;57;21066;-79
2022/01/10 02:14:24;;;;;;;17.73;8.85;;;;;;;;;;2337805;57;21011;-80
2022/01/10 02:16:55;;;;;;;18.90;9.60;;;;;;;;;;2337709;57;21041;-81
2022/01/10 02:19:22;;;;;;;16.27;9.00;;;;;;;;;;2337475;57;21109;-80
2022/01/10 02:21:49;;;;;;;15.60;9.65;;;;;;;;;;2337997;57;21014;-80
2022/01/10 02:24:16;;;;;;;14.63;8.88;;;;;;;;;;2337678;57;21026;-80
2022/01/10 02:26:47;;;;;;;19.23;10.45;;;;;;;;;;2337436;57;21097;-80
2022/01/10 02:29:14;;;;;;;18.40;11.85;;;;;;;;;;2337362;57;21101;-81
2022/01/10 02:31:41;;;;;;;15.73;10.30;;;;;;;;;;2337221;57;21590;-79
2022/01/10 02:34:08;;;;;;;16.33;10.70;;;;;;;;;;2582431;53;21146;-81
2022/01/10 02:36:35;;;;;;;16.00;10.45;;;;;;;;;;2337224;57;21057;-81
2022/01/10 02:39:04;;;;;;;15.10;9.57;;;;;;;;;;2337565;57;21503;-80
2022/01/10 02:41:32;;;;;;;16.58;11.02;;;;;;;;;;2337459;57;21458;-80
2022/01/10 02:44:00;;;;;;;16.08;10.32;;;;;;;;;;2337697;57;21042;-80
2022/01/10 02:46:27;;;;;;;16.17;10.20;;;;;;;;;;2337814;57;21033;-81
2022/01/10 02:48:54;;;;;;;17.45;10.65;;;;;;;;;;2337454;57;21605;-81
2022/01/10 02:51:21;;;;;;;16.10;10.90;;;;;;;;;;2583005;53;21061;-81
2022/01/10 02:53:48;;;;;;;19.75;11.75;;;;;;;;;;2337428;57;21010;-79
2022/01/10 02:56:15;;;;;;;20.75;12.37;;;;;;;;;;2582579;53;21065;-79
2022/01/10 02:58:42;;;;;;;17.30;11.07;;;;;;;;;;2582655;53;21094;-79
2022/01/10 03:01:09;;;;;;;18.40;11.30;;;;;;;;;;2337558;57;21033;-78
2022/01/10 03:03:36;;;;;;;20.30;12.30;;;;;;;;;;2337110;57;21558;-79
2022/01/10 03:06:03;;;;;;;17.33;11.25;;;;;;;;;;2337674;57;21638;-80
2022/01/10 03:08:31;;;;;;;23.48;14.18;;;;;;;;;;2337398;57;21050;-81
2022/01/10 03:10:58;;;;;;;17.55;10.55;;;;;;;;;;2582089;53;21105;-81
2022/01/10 03:13:25;;;;;;;17.08;10.40;;;;;;;;;;2337461;57;21089;-79
2022/01/10 03:15:52;;;;;;;16.87;10.43;;;;;;;;;;2582002;53;21012;-79
2022/01/10 03:18:19;;;;;;;15.30;9.65;;;;;;;;;;2581790;53;21037;-79
2022/01/10 03:20:46;;;;;;;17.02;9.55;;;;;;;;;;2582204;53;21018;-79
2022/01/10 03:23:13;;;;;;;13.50;8.80;;;;;;;;;;2581942;53;21053;-81
2022/01/10 03:25:40;;;;;;;12.25;7.95;;;;;;;;;;2337267;57;21041;-79
2022/01/10 03:28:08;;;;;;;12.35;8.35;;;;;;;;;;2337087;57;21038;-79
2022/01/10 03:30:35;;;;;;;11.00;8.07;;;;;;;;;;2581578;53;21021;-79
2022/01/10 03:33:03;;;;;;;13.55;9.20;;;;;;;;;;2337286;57;21053;-79
2022/01/10 03:35:31;;;;;;;15.85;10.05;;;;;;;;;;2336923;57;21045;-79
2022/01/10 03:37:58;;;;;;;12.82;7.72;;;;;;;;;;2336922;57;21018;-80
2022/01/10 03:40:25;;;;;;;11.70;7.68;;;;;;;;;;2581355;53;21577;-79
2022/01/10 03:42:52;;;;;;;11.43;7.87;;;;;;;;;;2581645;53;21307;-79
2022/01/10 03:45:19;;;;;;;11.00;7.37;;;;;;;;;;2336434;57;21034;-79
2022/01/10 03:47:46;;;;;;;13.77;8.77;;;;;;;;;;2336709;57;21054;-78
2022/01/10 03:50:13;;;;;;;13.18;9.05;;;;;;;;;;2336120;57;21046;-79
2022/01/10 03:52:42;;;;;;;21.80;10.98;;;;;;;;;;2337016;57;21029;-79
2022/01/10 03:55:10;;;;;;;17.65;9.77;;;;;;;;;;2336195;57;21046;-79
2022/01/10 03:57:37;;;;;;;16.00;10.40;;;;;;;;;;2581488;53;21073;-79
2022/01/10 04:00:06;;;;;;;17.02;10.13;;;;;;;;;;2336114;57;21058;-78
2022/01/10 04:02:33;;;;;;;13.88;9.60;;;;;;;;;;2337043;57;21636;-81
2022/01/10 04:05:00;;;;;;;15.55;9.60;;;;;;;;;;2336412;57;21454;-79
2022/01/10 04:07:27;;;;;;;17.92;10.82;;;;;;;;;;2581268;53;21089;-80
2022/01/10 04:09:54;;;;;;;15.50;9.73;;;;;;;;;;2336005;57;21176;-79
2022/01/10 04:12:21;;;;;;;18.80;10.65;;;;;;;;;;2336240;57;21026;-79
2022/01/10 04:14:48;;;;;;;18.55;9.90;;;;;;;;;;2581340;53;21624;-79
2022/01/10 04:17:15;;;;;;;19.17;11.32;;;;;;;;;;2335877;57;21105;-79
2022/01/10 04:19:42;;;;;;;14.13;9.13;;;;;;;;;;2334987;57;21156;-79
2022/01/10 04:22:11;;;;;;;15.70;10.70;;;;;;;;;;2581297;53;21266;-79
2022/01/10 04:24:38;;;;;;;17.10;10.85;;;;;;;;;;2336154;57;21105;-79
2022/01/10 04:27:05;;;;;;;16.23;10.73;;;;;;;;;;2335882;57;21105;-80
2022/01/10 04:29:32;;;;;;;17.42;10.80;;;;;;;;;;2581536;53;21093;-80
2022/01/10 04:32:00;;;;;;;15.10;9.90;;;;;;;;;;2336988;57;21187;-79
2022/01/10 04:34:27;;;;;;;17.20;10.15;;;;;;;;;;2582223;53;21046;-80
2022/01/10 04:36:54;;;;;;;15.63;10.02;;;;;;;;;;2337267;57;21010;-79
2022/01/10 04:39:21;;;;;;;17.48;11.85;;;;;;;;;;2336894;57;21050;-80
2022/01/10 04:41:48;;;;;;;17.48;11.52;;;;;;;;;;2337164;57;21026;-80
2022/01/10 04:44:15;;;;;;;17.58;10.55;;;;;;;;;;2581767;53;21058;-79
2022/01/10 04:46:42;;;;;;;16.15;10.02;;;;;;;;;;2337101;57;21313;-80
2022/01/10 04:49:17;;;;;;;16.25;10.00;;;;;;;;;;2336315;57;21041;-79
2022/01/10 04:51:44;;;;;;;15.68;9.32;;;;;;;;;;2582253;53;21078;-81
2022/01/10 04:54:11;;;;;;;16.62;10.13;;;;;;;;;;2582295;53;21034;-79
2022/01/10 04:56:38;;;;;;;15.85;9.82;;;;;;;;;;2582287;53;21026;-80
2022/01/10 04:59:05;;;;;;;16.70;10.40;;;;;;;;;;2336952;57;21121;-79
2022/01/10 05:01:32;;;;;;;16.48;11.23;;;;;;;;;;2336727;57;21096;-80
2022/01/10 05:03:59;;;;;;;19.10;11.12;;;;;;;;;;2337208;57;21116;-81
2022/01/10 05:06:26;;;;;;;15.15;9.57;;;;;;;;;;2581589;53;21065;-79
2022/01/10 05:08:53;;;;;;;14.18;9.30;;;;;;;;;;2336531;57;21065;-79
2022/01/10 05:11:20;;;;;;;14.65;9.95;;;;;;;;;;2336947;57;21537;-79
2022/01/10 05:13:47;;;;;;;15.82;10.50;;;;;;;;;;2582605;53;21446;-79
2022/01/10 05:16:15;;;;;;;14.68;9.60;;;;;;;;;;2337104;57;21101;-78
2022/01/10 05:18:43;;;;;;;19.37;11.43;;;;;;;;;;2581905;53;21097;-78
2022/01/10 05:21:12;;;;;;;21.90;12.70;;;;;;;;;;2336642;57;21073;-78
2022/01/10 05:23:39;;;;;;;18.65;11.43;;;;;;;;;;2337040;57;21010;-80
2022/01/10 05:26:06;;;;;;;19.92;11.77;;;;;;;;;;2582007;53;21581;-78
2022/01/10 05:28:34;;;;;;;17.77;11.25;;;;;;;;;;2337226;57;21153;-77
2022/01/10 05:31:01;;;;;;;18.87;12.18;;;;;;;;;;2581664;53;21021;-77
2022/01/10 05:33:28;;;;;;;18.65;11.73;;;;;;;;;;2337069;57;21542;-78
2022/01/10 05:35:55;;;;;;;17.00;10.82;;;;;;;;;;2336718;57;21319;-79
2022/01/10 05:38:22;;;;;;;18.75;11.63;;;;;;;;;;2335730;57;21095;-79
2022/01/10 05:40:49;;;;;;;17.37;11.30;;;;;;;;;;2335471;57;21642;-80
2022/01/10 05:43:16;;;;;;;16.92;11.25;;;;;;;;;;2580906;53;21037;-79
2022/01/10 05:45:44;;;;;;;19.10;12.10;;;;;;;;;;2580724;53;21042;-80
2022/01/10 05:48:14;;;;;;;21.02;11.88;;;;;;;;;;2337367;57;21013;-79
2022/01/10 05:50:44;;;;;;;18.35;11.90;;;;;;;;;;2350895;53;69477;-74
2022/01/10 05:53:11;;;;;;;16.30;10.50;;;;;;;;;;2323322;58;21127;-74
2022/01/10 05:55:39;;;;;;;17.65;10.90;;;;;;;;;;2375993;54;21063;-74
2022/01/10 05:58:06;;;;;;;18.75;11.20;;;;;;;;;;2323239;58;21135;-74
2022/01/10 06:00:34;;;;;;;21.40;13.25;;;;;;;;;;2323025;58;21091;-73
2022/01/10 06:03:01;;;;;;;21.75;13.38;;;;;;;;;;2323510;58;21119;-74
2022/01/10 06:05:31;;;;;;;19.35;11.82;;;;;;;;;;2323408;58;21139;-74
2022/01/10 06:07:58;;;;;;;19.17;11.82;;;;;;;;;;2323831;58;21131;-74
2022/01/10 06:10:25;;;;;;;18.02;11.10;;;;;;;;;;2322861;58;21064;-74
2022/01/10 06:12:53;;;;;;;15.98;10.63;;;;;;;;;;2323002;58;21578;-74
2022/01/10 06:15:20;;;;;;;16.23;10.25;;;;;;;;;;2323079;58;21044;-74
2022/01/10 06:17:47;;;;;;;15.18;9.80;;;;;;;;;;2326966;54;21130;-73
2022/01/10 06:20:14;;;;;;;19.55;11.10;;;;;;;;;;2322953;58;21686;-73
2022/01/10 06:23:01;;;;;;;17.45;11.15;;;;;;;;;;2447030;54;21108;-78
2022/01/10 06:25:29;;;;;;;18.02;10.98;;;;;;;;;;2323220;58;21131;-78
2022/01/10 06:27:57;;;;;;;22.33;13.18;;;;;;;;;;2323086;58;21033;-74
2022/01/10 06:30:24;;;;;;;20.58;12.43;;;;;;;;;;2323275;58;21116;-74
2022/01/10 06:32:51;;;;;;;21.45;13.32;;;;;;;;;;2323411;58;21060;-73
2022/01/10 06:35:18;;;;;;;21.75;13.43;;;;;;;;;;2323825;58;21131;-73
2022/01/10 06:37:45;;;;;;;22.42;13.95;;;;;;;;;;2323531;58;21055;-74
2022/01/10 06:40:13;;;;;;;17.73;11.75;;;;;;;;;;2323174;58;21107;-74
2022/01/10 06:42:40;;;;;;;18.83;12.57;;;;;;;;;;2323543;58;21108;-74
2022/01/10 06:45:08;;;;;;;23.08;13.77;;;;;;;;;;2343158;54;21072;-73
2022/01/10 06:47:35;;;;;;;21.45;11.88;;;;;;;;;;2323598;58;21546;-74
2022/01/10 06:50:02;;;;;;;22.37;14.57;;;;;;;;;;2322954;58;21120;-74
2022/01/10 06:52:29;;;;;;;22.70;12.73;;;;;;;;;;2323510;58;21052;-74
2022/01/10 06:54:56;;;;;;;27.33;16.35;;;;;;;;;;2322721;58;21048;-74
2022/01/10 06:57:23;;;;;;;21.05;13.07;;;;;;;;;;2323541;58;21047;-74
2022/01/10 06:59:50;;;;;;;24.00;13.55;;;;;;;;;;2322864;58;21704;-74
2022/01/10 07:02:18;;;;;;;26.62;14.43;;;;;;;;;;2323497;58;21099;-74
2022/01/10 07:04:45;;;;;;;25.20;15.00;;;;;;;;;;2323420;58;21076;-73
2022/01/10 07:07:12;;;;;;;22.00;13.60;;;;;;;;;;2323577;58;21044;-74
2022/01/10 07:09:39;;;;;;;22.27;13.02;;;;;;;;;;2330252;54;21048;-73
2022/01/10 07:12:07;;;;;;;26.08;14.10;;;;;;;;;;2323498;58;21118;-74
2022/01/10 07:14:35;;;;;;;21.83;14.23;;;;;;;;;;2323437;58;21090;-74
2022/01/10 07:17:02;;;;;;;29.98;17.05;;;;;;;;;;2336684;54;21064;-74
2022/01/10 07:19:29;;;;;;;24.25;14.27;;;;;;;;;;2324446;54;21123;-74
2022/01/10 07:21:56;;;;;;;28.98;15.90;;;;;;;;;;2322729;58;21048;-74
2022/01/10 07:24:23;;;;;;;24.02;13.65;;;;;;;;;;2323502;58;21052;-73
2022/01/10 07:26:50;;;;;;;23.95;13.90;;;;;;;;;;2323884;58;21060;-74
2022/01/10 07:29:17;;;;;;;23.10;13.77;;;;;;;;;;2323206;58;21088;-74
2022/01/10 07:31:44;;;;;;;21.42;12.52;;;;;;;;;;2323058;58;21111;-74
2022/01/10 07:34:14;;;;;;;22.70;13.68;;;;;;;;;;2323494;58;21060;-73
2022/01/10 07:36:41;;;;;;;29.35;15.02;;;;;;;;;;2322959;58;21124;-74
2022/01/10 07:39:08;;;;;;;23.62;13.95;;;;;;;;;;2518561;53;22183;-73
2022/01/10 07:41:35;;;;;;;25.70;14.32;;;;;;;;;;2322036;58;21056;-73
2022/01/10 07:44:02;;;;;;;26.27;15.05;;;;;;;;;;2332483;54;21040;-74
2022/01/10 07:46:29;;;;;;;25.55;14.43;;;;;;;;;;2323214;58;21044;-74
2022/01/10 07:48:56;;;;;;;29.20;15.40;;;;;;;;;;2323175;54;21094;-74
2022/01/10 07:51:24;;;;;;;27.92;16.15;;;;;;;;;;2323411;58;21064;-74
2022/01/10 07:53:51;;;;;;;29.08;15.40;;;;;;;;;;2323248;58;21056;-74
2022/01/10 07:56:18;;;;;;;29.98;16.37;;;;;;;;;;2323630;58;21157;-73
2022/01/10 07:58:48;;;;;;;27.52;16.73;;;;;;;;;;2323338;58;21067;-73
2022/01/10 08:01:15;;;;;;;27.37;16.35;;;;;;;;;;2323661;58;21147;-74
2022/01/10 08:03:42;;;;;;;28.42;16.77;;;;;;;;;;2323222;58;21570;-73
2022/01/10 08:06:09;;;;;;;30.00;16.70;;;;;;;;;;2323630;58;21111;-74
2022/01/10 08:08:36;;;;;;;35.50;19.42;;;;;;;;;;2383933;54;21544;-74
2022/01/10 08:11:03;;;;;;;30.65;15.95;;;;;;;;;;2322707;58;21060;-74
2022/01/10 08:13:30;;;;;;;31.70;17.75;;;;;;;;;;2434147;54;21562;-74
2022/01/10 08:15:57;;;;;;;32.72;16.50;;;;;;;;;;2323643;58;21048;-74
2022/01/10 08:18:24;;;;;;;33.15;17.65;;;;;;;;;;2323288;58;21103;-74
2022/01/10 08:20:51;;;;;;;34.65;17.10;;;;;;;;;;2322884;58;21056;-74
2022/01/10 08:23:18;;;;;;;30.98;16.85;;;;;;;;;;2323404;58;21044;-74
2022/01/10 08:25:45;;;;;;;36.03;18.80;;;;;;;;;;2323186;58;21127;-74
2022/01/10 08:28:12;;;;;;;32.83;19.05;;;;;;;;;;2456033;54;21132;-74
2022/01/10 08:30:39;;;;;;;40.95;20.37;;;;;;;;;;2375090;53;21104;-74
2022/01/10 08:33:06;;;;;;;31.52;16.52;;;;;;;;;;2323500;58;21132;-74
2022/01/10 08:35:34;;;;;;;40.17;18.87;;;;;;;;;;2323459;58;21052;-74
2022/01/10 08:38:01;;;;;;;32.42;18.12;;;;;;;;;;2323213;58;21072;-74
2022/01/10 08:40:28;;;;;;;37.00;19.23;;;;;;;;;;2329607;54;21339;-74
2022/01/10 08:42:55;;;;;;;33.50;17.70;;;;;;;;;;2323435;58;21227;-74
2022/01/10 08:45:22;;;;;;;35.80;19.00;;;;;;;;;;2321298;58;21582;-74
2022/01/10 08:47:49;;;;;;;32.45;16.75;;;;;;;;;;2323144;58;21218;-74
2022/01/10 08:50:16;;;;;;;36.08;18.80;;;;;;;;;;2322049;58;21208;-74
2022/01/10 08:52:43;;;;;;;33.85;17.55;;;;;;;;;;2402135;54;21084;-74
2022/01/10 08:55:10;;;;;;;33.85;17.75;;;;;;;;;;2323025;58;21055;-73
2022/01/10 08:57:38;;;;;;;35.40;18.65;;;;;;;;;;2323007;58;21049;-74
2022/01/10 09:00:06;;;;;;;34.70;19.23;;;;;;;;;;2322930;58;21048;-74
2022/01/10 09:02:33;;;;;;;33.33;18.00;;;;;;;;;;2323175;58;21048;-74
2022/01/10 09:05:00;;;;;;;35.45;18.90;;;;;;;;;;2323309;58;21048;-74
2022/01/10 09:07:27;;;;;;;47.40;22.58;;;;;;;;;;2323412;58;21124;-74
2022/01/10 09:09:54;;;;;;;57.60;26.55;;;;;;;;;;2322451;58;21048;-74
2022/01/10 09:12:21;;;;;;;46.28;24.48;;;;;;;;;;2565634;54;21119;-74
2022/01/10 09:14:48;;;;;;;47.67;22.73;;;;;;;;;;2323140;58;21039;-74
2022/01/10 09:17:15;;;;;;;48.10;23.92;;;;;;;;;;2323663;58;21583;-74
2022/01/10 09:19:42;;;;;;;46.60;24.25;;;;;;;;;;2322735;58;21068;-73
2022/01/10 09:22:09;;;;;;;54.22;24.73;;;;;;;;;;2323247;58;21060;-74
2022/01/10 09:24:36;;;;;;;49.47;24.70;;;;;;;;;;2323099;58;21123;-74
2022/01/10 09:27:03;;;;;;;51.15;23.70;;;;;;;;;;2323527;58;21059;-74
2022/01/10 09:29:30;;;;;;;49.58;24.55;;;;;;;;;;2322154;58;21060;-74
2022/01/10 09:31:57;;;;;;;48.05;24.35;;;;;;;;;;2322493;58;21052;-74
2022/01/10 09:34:24;;;;;;;47.60;23.52;;;;;;;;;;2323197;58;21060;-74
2022/01/10 09:36:51;;;;;;;50.50;25.15;;;;;;;;;;2323177;58;21040;-74
2022/01/10 09:39:19;;;;;;;47.90;24.48;;;;;;;;;;2368060;54;21613;-74
2022/01/10 09:41:47;;;;;;;47.65;25.27;;;;;;;;;;2322843;54;21538;-74
2022/01/10 09:44:14;;;;;;;49.92;24.50;;;;;;;;;;2322672;58;21120;-74
2022/01/10 09:46:41;;;;;;;54.70;25.98;;;;;;;;;;2321618;58;21550;-74
2022/01/10 09:49:08;;;;;;;52.45;26.20;;;;;;;;;;2321932;58;21211;-74
2022/01/10 09:51:35;;;;;;;53.00;26.30;;;;;;;;;;2323115;58;21613;-74
2022/01/10 09:54:03;;;;;;;46.75;25.20;;;;;;;;;;2355995;54;21028;-74
2022/01/10 09:56:30;;;;;;;48.78;24.70;;;;;;;;;;2322296;58;21622;-74
2022/01/10 09:58:58;;;;;;;51.15;26.15;;;;;;;;;;2322242;58;21562;-74
2022/01/10 10:01:26;;;;;;;57.25;28.77;;;;;;;;;;2321774;58;21024;-74
2022/01/10 10:03:58;;;;;;;59.03;28.48;;;;;;;;;;2322546;58;21052;-74
2022/01/10 10:06:26;;;;;;;59.43;28.90;;;;;;;;;;2323475;58;21047;-75
2022/01/10 10:08:53;;;;;;;56.85;28.08;;;;;;;;;;2321378;58;21116;-73
2022/01/10 10:11:20;;;;;;;61.83;28.35;;;;;;;;;;2379592;52;70939;-82
2022/01/10 10:13:52;;;;;;;57.75;28.30;;;;;;;;;;2384952;56;21685;-81
2022/01/10 10:16:19;;;;;;;64.68;29.05;;;;;;;;;;2385232;56;21029;-81
2022/01/10 10:18:47;;;;;;;62.38;28.10;;;;;;;;;;2404092;52;21030;-81
2022/01/10 10:21:15;;;;;;;64.93;30.45;;;;;;;;;;2384800;56;21090;-82
2022/01/10 10:23:46;;;;;;;56.67;27.58;;;;;;;;;;2594112;52;20995;-81
2022/01/10 10:26:16;;;;;;;53.33;24.15;;;;;;;;;;2642021;52;21037;-83
2022/01/10 10:28:44;;;;;;;51.33;23.48;;;;;;;;;;2382596;53;70516;-74
2022/01/10 10:31:11;;;;;;;60.17;27.30;;;;;;;;;;2385022;56;21172;-74
2022/01/10 10:33:46;;;;;;;67.45;31.92;;;;;;;;;;2384798;56;21584;-75
2022/01/10 10:36:13;;;;;;;63.65;29.63;;;;;;;;;;2384292;56;21731;-75
2022/01/10 10:38:40;;;;;;;76.15;37.30;;;;;;;;;;2385263;56;21023;-73
2022/01/10 10:41:07;;;;;;;74.68;33.30;;;;;;;;;;2384668;56;21031;-75
2022/01/10 10:43:35;;;;;;;65.78;32.15;;;;;;;;;;2385082;56;21510;-75
2022/01/10 10:46:02;;;;;;;64.20;31.12;;;;;;;;;;2384730;56;21081;-75
2022/01/10 10:48:30;;;;;;;68.50;31.52;;;;;;;;;;2383827;56;21010;-75
2022/01/10 10:50:59;;;;;;;69.18;32.85;;;;;;;;;;2383844;56;21090;-75
2022/01/10 10:53:28;;;;;;;69.25;31.83;;;;;;;;;;2383461;56;21015;-75
2022/01/10 10:55:57;;;;;;;67.57;32.55;;;;;;;;;;2384667;56;21035;-73
2022/01/10 10:58:25;;;;;;;65.00;29.50;;;;;;;;;;2640625;52;21486;-75
2022/01/10 11:00:52;;;;;;;69.87;32.20;;;;;;;;;;2384552;56;21093;-75
2022/01/10 11:03:19;;;;;;;69.78;31.45;;;;;;;;;;2385446;56;21021;-75
2022/01/10 11:05:48;;;;;;;71.40;33.45;;;;;;;;;;2383838;56;21029;-73
2022/01/10 11:08:15;;;;;;;70.75;32.67;;;;;;;;;;2639075;52;22715;-75
2022/01/10 11:10:42;;;;;;;73.60;34.78;;;;;;;;;;2380675;56;21113;-73
2022/01/10 11:13:09;;;;;;;69.60;32.47;;;;;;;;;;2379674;56;21588;-74
2022/01/10 11:15:38;;;;;;;69.93;31.25;;;;;;;;;;2383987;56;21714;-74
2022/01/10 11:18:06;;;;;;;77.75;36.25;;;;;;;;;;2384300;56;21505;-75
2022/01/10 11:20:41;;;;;;;69.85;33.08;;;;;;;;;;2384256;56;21505;-72
2022/01/10 11:23:08;;;;;;;72.03;32.25;;;;;;;;;;2384390;56;21022;-74
2022/01/10 11:25:37;;;;;;;71.20;34.95;;;;;;;;;;2385137;56;21007;-74
2022/01/10 11:28:06;;;;;;;71.45;33.45;;;;;;;;;;2384286;56;21493;-74
2022/01/10 11:30:35;;;;;;;76.97;35.22;;;;;;;;;;2384472;56;21098;-74
2022/01/10 11:33:04;;;;;;;76.50;35.00;;;;;;;;;;2385074;56;21493;-75
2022/01/10 11:35:33;;;;;;;76.32;34.58;;;;;;;;;;2384066;56;21010;-74
2022/01/10 11:38:00;;;;;;;75.62;35.58;;;;;;;;;;2384417;56;21023;-74
2022/01/10 11:40:27;;;;;;;73.43;34.13;;;;;;;;;;2384674;56;21548;-74
2022/01/10 11:42:55;;;;;;;79.37;35.42;;;;;;;;;;2639626;52;21560;-74
2022/01/10 11:45:22;;;;;;;74.80;35.42;;;;;;;;;;2384267;56;21031;-74
2022/01/10 11:48:09;;;;;;;71.00;32.45;;;;;;;;;;2383931;56;21086;-73
2022/01/10 11:50:41;;;;;;;79.78;33.95;;;;;;;;;;2383970;56;21327;-73
2022/01/10 11:53:09;;;;;;;83.65;36.13;;;;;;;;;;2384749;56;21074;-73
2022/01/10 11:55:42;;;;;;;77.40;35.20;;;;;;;;;;2384687;56;21517;-74
2022/01/10 11:58:08;;;;;;;;;;;;;;;;;;2388370;56;21608;-74
2022/01/10 12:00:36;;;;;;;75.50;32.17;;;;;;;;;;2381966;56;20125;-74
2022/01/10 12:03:03;;;;;;;74.72;34.03;;;;;;;;;;2384605;56;21027;-73
2022/01/10 12:05:31;;;;;;;76.18;33.40;;;;;;;;;;2384581;56;21509;-73
2022/01/10 12:07:58;;;;;;;77.93;34.15;;;;;;;;;;2384576;56;21525;-73
2022/01/10 12:10:27;;;;;;;73.65;33.25;;;;;;;;;;2636890;51;21006;-71
2022/01/10 12:13:02;;;;;;;72.53;34.17;;;;;;;;;;2639647;52;21034;-72
2022/01/10 12:15:31;;;;;;;69.45;32.28;;;;;;;;;;2639624;52;21015;-73
2022/01/10 12:17:58;;;;;;;73.18;33.33;;;;;;;;;;2384463;56;21348;-71
2022/01/10 12:20:26;;;;;;;80.22;37.67;;;;;;;;;;2383143;56;22383;-73
2022/01/10 12:22:53;;;;;;;81.50;36.85;;;;;;;;;;2384334;56;21026;-73
2022/01/10 12:25:20;;;;;;;84.68;38.72;;;;;;;;;;2384864;56;21150;-72
2022/01/10 12:27:49;;;;;;;74.93;34.75;;;;;;;;;;2384664;56;21022;-71
2022/01/10 12:30:16;;;;;;;75.25;33.20;;;;;;;;;;2384474;56;21090;-73
2022/01/10 12:32:45;;;;;;;80.07;36.40;;;;;;;;;;2640376;52;21049;-74
2022/01/10 12:35:12;;;;;;;69.50;33.35;;;;;;;;;;2384598;56;21106;-73
2022/01/10 12:37:39;;;;;;;78.50;33.05;;;;;;;;;;2383896;56;21058;-74
2022/01/10 12:40:07;;;;;;;77.28;35.25;;;;;;;;;;2384155;56;21101;-73
2022/01/10 12:42:34;;;;;;;85.62;35.55;;;;;;;;;;2383907;56;21014;-73
2022/01/10 12:45:01;;;;;;;83.97;37.85;;;;;;;;;;2384999;56;21018;-72
2022/01/10 12:47:29;;;;;;;90.07;40.17;;;;;;;;;;2639886;52;21280;-73
2022/01/10 12:49:57;;;;;;;75.78;31.67;;;;;;;;;;2384125;56;21019;-73
2022/01/10 12:52:24;;;;;;;81.63;36.22;;;;;;;;;;2383913;56;21028;-73
2022/01/10 12:54:51;;;;;;;77.75;34.80;;;;;;;;;;2640127;52;21035;-74
2022/01/10 12:57:18;;;;;;;80.43;36.72;;;;;;;;;;2384522;56;21026;-73
2022/01/10 12:59:45;;;;;;;81.57;35.58;;;;;;;;;;2384491;56;21086;-75
2022/01/10 13:02:13;;;;;;;77.43;34.78;;;;;;;;;;2384932;56;21046;-73
2022/01/10 13:04:41;;;;;;;74.10;32.92;;;;;;;;;;2384411;56;21134;-75
2022/01/10 13:07:09;;;;;;;77.57;34.95;;;;;;;;;;2384854;56;21595;-75
2022/01/10 13:09:38;;;;;;;76.80;32.92;;;;;;;;;;2384036;56;21057;-75
2022/01/10 13:12:15;;;;;;;75.35;31.70;;;;;;;;;;2384877;56;21031;-75
2022/01/10 13:14:42;;;;;;;71.95;30.75;;;;;;;;;;2385031;56;21088;-74
2022/01/10 13:17:10;;;;;;;80.87;33.83;;;;;;;;;;2383054;56;21109;-74
2022/01/10 13:19:40;;;;;;;80.97;34.22;;;;;;;;;;2384400;56;21459;-74
2022/01/10 13:22:10;;;;;;;77.82;36.38;;;;;;;;;;2639558;52;21074;-74
2022/01/10 13:24:46;;;;;;;73.03;32.50;;;;;;;;;;2383308;56;21019;-72
2022/01/10 13:27:17;;;;;;;73.07;33.85;;;;;;;;;;2382867;56;21576;-72
2022/01/10 13:29:45;;;;;;;72.00;32.35;;;;;;;;;;2383940;56;21042;-72
2022/01/10 13:32:30;;;;;;;77.22;33.67;;;;;;;;;;2640287;52;21030;-71
2022/01/10 13:35:10;;;;;;;76.60;33.78;;;;;;;;;;2640002;52;21015;-73
2022/01/10 13:37:38;;;;;;;74.18;33.00;;;;;;;;;;2384528;56;21592;-74
2022/01/10 13:40:07;;;;;;;75.10;33.58;;;;;;;;;;2382205;56;21649;-71
2022/01/10 13:42:38;;;;;;;74.55;34.53;;;;;;;;;;2384285;56;21022;-73
2022/01/10 13:45:06;;;;;;;76.93;33.70;;;;;;;;;;2384617;56;21031;-73
2022/01/10 13:47:48;;;;;;;84.40;37.65;;;;;;;;;;2384953;56;21065;-73
2022/01/10 13:50:19;;;;;;;79.90;34.65;;;;;;;;;;2384354;56;21014;-73
2022/01/10 13:53:02;;;;;;;80.93;36.20;;;;;;;;;;2385057;56;21552;-71
2022/01/10 13:55:29;;;;;;;84.65;38.25;;;;;;;;;;2384860;56;21046;-71
2022/01/10 13:57:56;;;;;;;84.75;38.92;;;;;;;;;;2384624;56;21119;-72
2022/01/10 14:00:25;;;;;;;83.37;37.72;;;;;;;;;;2383130;56;21635;-73
2022/01/10 14:02:54;;;;;;;89.55;39.58;;;;;;;;;;2384094;56;21090;-71
2022/01/10 14:05:23;;;;;;;93.80;42.08;;;;;;;;;;2383631;56;21039;-74
2022/01/10 14:07:51;;;;;;;96.10;41.60;;;;;;;;;;2384438;56;21556;-74
2022/01/10 14:10:18;;;;;;;104.82;43.30;;;;;;;;;;2639777;51;21018;-74
2022/01/10 14:12:45;;;;;;;100.65;43.22;;;;;;;;;;2384744;56;21568;-72
2022/01/10 14:15:12;;;;;;;104.12;43.38;;;;;;;;;;2384444;56;21035;-74
2022/01/10 14:17:39;;;;;;;99.22;42.10;;;;;;;;;;2383755;56;21118;-74
2022/01/10 14:20:07;;;;;;;108.12;42.17;;;;;;;;;;2640236;52;21019;-74
2022/01/10 14:22:34;;;;;;;103.75;43.00;;;;;;;;;;2385137;56;21030;-74
2022/01/10 14:25:01;;;;;;;100.75;40.83;;;;;;;;;;2384818;56;21568;-74
2022/01/10 14:27:30;;;;;;;107.90;43.08;;;;;;;;;;2384583;56;21584;-72
2022/01/10 14:29:57;;;;;;;108.55;43.63;;;;;;;;;;2384253;56;21003;-74